createdAt,value
2023-06-15T03:58:16.907Z,5.78
2023-06-15T04:01:20.915Z,5.72
2023-06-15T04:04:23.714Z,5.53
2023-06-15T04:07:26.817Z,6.00
2023-06-15T04:10:29.310Z,6.00
2023-06-15T04:13:32.004Z,5.80
2023-06-15T04:16:36.835Z,5.82
2023-06-15T04:19:39.295Z,5.85
2023-06-15T04:22:41.759Z,5.82
2023-06-15T04:25:43.887Z,5.78
2023-06-15T04:28:46.524Z,5.50
2023-06-15T04:31:56.128Z,5.35
2023-06-15T04:34:59.084Z,5.20
2023-06-15T04:38:06.170Z,5.20
2023-06-15T04:41:09.019Z,5.10
2023-06-15T04:44:11.704Z,5.22
2023-06-15T04:47:14.897Z,5.07
2023-06-15T04:50:17.540Z,5.40
2023-06-15T04:53:20.108Z,5.20
2023-06-15T04:56:23.888Z,5.28
2023-06-15T04:59:28.414Z,5.40
2023-06-15T05:02:30.747Z,6.18
2023-06-15T05:05:33.568Z,5.70
2023-06-15T05:08:36.414Z,5.53
2023-06-15T05:11:40.042Z,5.45
2023-06-15T05:14:42.332Z,5.45
2023-06-15T05:17:45.350Z,5.97
2023-06-15T05:20:48.226Z,6.12
2023-06-15T05:23:50.812Z,6.25
2023-06-15T05:26:53.287Z,6.00
2023-06-15T05:29:56.165Z,6.22
2023-06-15T05:32:58.589Z,5.78
2023-06-15T05:36:08.958Z,5.62
2023-06-15T05:39:21.770Z,5.30
2023-06-15T05:42:26.976Z,5.57
2023-06-15T05:45:31.268Z,5.82
2023-06-15T05:48:34.045Z,5.07
2023-06-15T05:51:36.540Z,5.28
2023-06-15T05:54:39.213Z,4.68
2023-06-15T05:57:41.506Z,5.55
2023-06-15T06:00:44.031Z,5.37
2023-06-15T06:03:46.540Z,5.40
2023-06-15T06:06:50.462Z,4.80
2023-06-15T06:09:53.445Z,5.57
2023-06-15T06:12:56.068Z,5.25
2023-06-15T06:15:58.529Z,4.80
2023-06-15T06:19:01.103Z,4.75
2023-06-15T06:22:04.004Z,5.30
2023-06-15T06:25:07.675Z,5.15
2023-06-15T06:28:11.097Z,5.18
2023-06-15T06:31:13.426Z,5.68
2023-06-15T06:34:16.252Z,5.47
2023-06-15T06:37:18.427Z,5.37
2023-06-15T06:40:22.609Z,5.97
2023-06-15T06:43:24.947Z,5.65
2023-06-15T06:46:31.672Z,5.18
2023-06-15T06:49:35.199Z,6.07
2023-06-15T06:52:38.733Z,5.55
2023-06-15T06:55:40.983Z,5.28
2023-06-15T06:58:44.400Z,5.03
2023-06-15T07:01:47.619Z,5.80
2023-06-15T07:04:50.063Z,4.93
2023-06-15T07:07:52.266Z,5.78
2023-06-15T07:10:54.954Z,5.15
2023-06-15T07:13:57.132Z,5.53
2023-06-15T07:16:59.539Z,6.05
2023-06-15T07:20:01.994Z,6.18
2023-06-15T07:23:04.847Z,5.45
2023-06-15T07:26:07.038Z,5.68
2023-06-15T07:29:09.577Z,5.15
2023-06-15T07:32:12.378Z,5.40
2023-06-15T07:35:14.923Z,4.95
2023-06-15T07:38:17.059Z,4.93
2023-06-15T07:41:20.048Z,5.00
2023-06-15T07:44:22.603Z,5.05
2023-06-15T07:47:25.178Z,5.30
2023-06-15T07:50:29.980Z,4.45
2023-06-15T07:53:32.481Z,4.97
2023-06-15T07:56:34.679Z,5.72
2023-06-15T07:59:37.217Z,4.95
2023-06-15T08:02:39.502Z,4.40
2023-06-15T08:05:42.148Z,4.35
2023-06-15T08:08:46.075Z,4.30
2023-06-15T08:11:50.303Z,4.12
2023-06-15T08:14:53.015Z,4.28
2023-06-15T08:17:55.623Z,4.47
2023-06-15T08:20:58.202Z,4.72
2023-06-15T08:24:00.912Z,4.00
2023-06-15T08:27:03.393Z,4.28
2023-06-15T08:30:06.995Z,4.60
2023-06-15T08:33:09.369Z,4.10
2023-06-15T08:36:12.277Z,4.57
2023-06-15T08:39:14.559Z,4.90
2023-06-15T08:42:18.411Z,4.53
2023-06-15T08:45:20.633Z,4.55
2023-06-15T08:48:24.969Z,4.35
2023-06-15T08:51:27.232Z,4.07
2023-06-15T08:54:33.472Z,4.30
2023-06-15T08:57:36.783Z,4.03
2023-06-15T09:00:39.295Z,4.00
2023-06-15T09:03:42.879Z,4.18
2023-06-15T09:06:45.497Z,4.60
2023-06-15T09:10:09.670Z,3.95
2023-06-15T09:13:18.425Z,4.70
2023-06-15T09:16:21.135Z,4.80
2023-06-15T09:19:23.635Z,4.53
2023-06-15T09:22:28.628Z,4.40
2023-06-15T09:25:33.091Z,4.35
2023-06-15T09:28:35.424Z,4.25
2023-06-15T09:31:38.282Z,4.57
2023-06-15T09:34:40.707Z,4.43
2023-06-15T09:37:43.381Z,5.57
2023-06-15T09:40:45.748Z,5.03
2023-06-15T09:43:48.736Z,4.85
2023-06-15T09:46:55.808Z,4.35
2023-06-15T09:49:59.440Z,4.50
2023-06-15T09:53:03.915Z,4.60
2023-06-15T09:56:17.278Z,6.07
2023-06-15T09:59:30.180Z,4.45
2023-06-15T10:02:36.447Z,4.78
2023-06-15T10:05:45.548Z,5.20
2023-06-15T10:08:52.811Z,4.53
2023-06-15T10:11:59.359Z,4.87
2023-06-15T10:15:08.579Z,5.35
2023-06-15T10:18:14.021Z,4.62
2023-06-15T10:21:24.308Z,4.37
2023-06-15T10:24:29.942Z,4.75
2023-06-15T10:27:32.233Z,4.85
2023-06-15T10:30:58.305Z,4.47
2023-06-15T10:34:09.918Z,4.87
2023-06-15T10:37:29.778Z,4.07
2023-06-15T10:40:39.328Z,4.47
2023-06-15T10:43:58.281Z,4.32
2023-06-15T10:47:12.124Z,4.15
2023-06-15T10:50:18.106Z,3.92
2023-06-15T10:53:25.832Z,4.18
2023-06-15T10:56:28.965Z,4.15
2023-06-15T10:59:54.438Z,3.78
2023-06-15T11:03:00.783Z,4.00
2023-06-15T11:06:08.781Z,4.05
2023-06-15T11:09:15.018Z,4.00
2023-06-15T11:12:37.684Z,3.80
2023-06-15T11:15:41.689Z,4.12
2023-06-15T11:19:14.312Z,3.80
2023-06-15T11:22:27.470Z,4.05
2023-06-15T11:25:31.195Z,3.90
2023-06-15T11:28:38.483Z,3.87
2023-06-15T11:31:44.404Z,4.30
2023-06-15T11:34:47.829Z,3.87
2023-06-15T11:37:51.786Z,4.32
2023-06-15T11:41:03.184Z,3.72
2023-06-15T11:44:09.615Z,3.30
2023-06-15T11:47:12.712Z,3.70
2023-06-15T11:50:19.477Z,3.50
2023-06-15T11:53:22.544Z,3.83
2023-06-15T11:56:25.345Z,3.75
2023-06-15T11:59:28.839Z,3.97
2023-06-15T12:02:31.171Z,3.78
2023-06-15T12:05:34.135Z,3.83
2023-06-15T12:08:36.514Z,4.07
2023-06-15T12:11:39.063Z,3.75
2023-06-15T12:14:43.302Z,3.58
2023-06-15T12:17:46.197Z,3.42
2023-06-15T12:20:48.868Z,3.20
2023-06-15T12:23:52.257Z,3.53
2023-06-15T12:26:59.584Z,3.90
2023-06-15T12:30:18.795Z,3.65
2023-06-15T12:33:32.935Z,3.67
2023-06-15T12:36:38.377Z,3.65
2023-06-15T12:39:41.072Z,3.83
2023-06-15T12:42:43.529Z,3.95
2023-06-15T12:45:45.853Z,3.60
2023-06-15T12:48:48.407Z,3.70
2023-06-15T12:51:52.101Z,3.83
2023-06-15T12:54:55.696Z,3.58
2023-06-15T12:57:58.579Z,3.90
2023-06-15T13:01:01.625Z,3.80
2023-06-15T13:04:04.078Z,4.07
2023-06-15T13:07:06.815Z,3.50
2023-06-15T13:10:13.894Z,4.00
2023-06-15T13:13:16.375Z,3.45
2023-06-15T13:16:18.723Z,3.28
2023-06-15T13:19:21.718Z,3.40
2023-06-15T13:22:23.903Z,3.67
2023-06-15T13:25:26.416Z,3.67
2023-06-15T13:28:28.666Z,4.10
2023-06-15T13:31:31.266Z,3.37
2023-06-15T13:34:34.061Z,3.55
2023-06-15T13:37:38.022Z,3.83
2023-06-15T13:40:40.262Z,3.58
2023-06-15T13:43:42.679Z,3.72
2023-06-15T13:46:44.977Z,3.22
2023-06-15T13:49:48.612Z,4.85
2023-06-15T13:52:51.494Z,3.60
2023-06-15T13:55:53.930Z,4.07
2023-06-15T13:58:57.699Z,3.60
2023-06-15T14:02:00.783Z,4.80
2023-06-15T14:05:03.671Z,4.22
2023-06-15T14:08:05.822Z,3.70
2023-06-15T14:11:08.244Z,4.00
2023-06-15T14:14:10.424Z,3.90
2023-06-15T14:17:12.876Z,4.10
2023-06-15T14:20:15.106Z,3.58
2023-06-15T14:23:18.280Z,4.00
2023-06-15T14:26:20.498Z,3.58
2023-06-15T14:29:22.944Z,3.95
2023-06-15T14:32:25.784Z,4.25
2023-06-15T14:35:28.365Z,4.12
2023-06-15T14:38:30.493Z,4.00
2023-06-15T14:41:32.942Z,3.87
2023-06-15T14:44:35.137Z,4.10
2023-06-15T14:47:38.743Z,3.95
2023-06-15T14:50:41.831Z,3.90
2023-06-15T14:53:46.312Z,4.40
2023-06-15T14:56:48.520Z,3.80
2023-06-15T14:59:51.050Z,4.00
2023-06-15T15:02:53.347Z,3.97
2023-06-15T15:05:55.826Z,3.87
2023-06-15T15:08:58.020Z,4.05
2023-06-15T15:12:00.463Z,3.85
2023-06-15T15:15:02.986Z,3.72
2023-06-15T15:18:05.560Z,3.83
2023-06-15T15:21:08.157Z,4.12
2023-06-15T15:24:10.809Z,3.70
2023-06-15T15:27:13.548Z,3.83
